sensor_id;sensor_type;location;lat;lon;timestamp;P1;durP1;ratioP1;P2;durP2;ratioP2
1837;SDS011;918;50.796;6.772;2022-12-18T00:01:37;12.70;;;11.37;;
1837;SDS011;918;50.796;6.772;2022-12-18T00:04:06;13.97;;;10.97;;
1837;SDS011;918;50.796;6.772;2022-12-18T00:06:33;14.73;;;11.37;;
1837;SDS011;918;50.796;6.772;2022-12-18T00:08:59;14.60;;;10.90;;
1837;SDS011;918;50.796;6.772;2022-12-18T00:11:26;14.47;;;12.00;;
1837;SDS011;918;50.796;6.772;2022-12-18T00:13:54;11.67;;;10.40;;
1837;SDS011;918;50.796;6.772;2022-12-18T00:16:21;14.43;;;11.40;;
1837;SDS011;918;50.796;6.772;2022-12-18T00:18:47;13.10;;;11.10;;
1837;SDS011;918;50.796;6.772;2022-12-18T00:21:13;11.70;;;9.90;;
1837;SDS011;918;50.796;6.772;2022-12-18T00:23:40;14.03;;;11.30;;
1837;SDS011;918;50.796;6.772;2022-12-18T00:26:09;14.23;;;12.13;;
1837;SDS011;918;50.796;6.772;2022-12-18T00:28:40;15.40;;;11.10;;
1837;SDS011;918;50.796;6.772;2022-12-18T00:31:11;11.87;;;10.73;;
1837;SDS011;918;50.796;6.772;2022-12-18T00:33:38;12.63;;;10.13;;
1837;SDS011;918;50.796;6.772;2022-12-18T00:36:04;14.77;;;11.20;;
1837;SDS011;918;50.796;6.772;2022-12-18T00:38:34;13.00;;;11.00;;
1837;SDS011;918;50.796;6.772;2022-12-18T00:41:00;16.50;;;11.80;;
1837;SDS011;918;50.796;6.772;2022-12-18T00:43:25;14.60;;;12.13;;
1837;SDS011;918;50.796;6.772;2022-12-18T00:45:51;16.50;;;12.20;;
1837;SDS011;918;50.796;6.772;2022-12-18T00:48:16;15.93;;;12.40;;
1837;SDS011;918;50.796;6.772;2022-12-18T00:50:41;14.20;;;11.33;;
1837;SDS011;918;50.796;6.772;2022-12-18T00:53:07;12.50;;;11.00;;
1837;SDS011;918;50.796;6.772;2022-12-18T00:55:35;13.00;;;10.57;;
1837;SDS011;918;50.796;6.772;2022-12-18T00:58:02;15.00;;;10.13;;
1837;SDS011;918;50.796;6.772;2022-12-18T01:00:27;13.10;;;11.57;;
1837;SDS011;918;50.796;6.772;2022-12-18T01:02:52;14.57;;;10.93;;
1837;SDS011;918;50.796;6.772;2022-12-18T01:05:18;11.93;;;10.60;;
1837;SDS011;918;50.796;6.772;2022-12-18T01:07:43;12.63;;;9.63;;
1837;SDS011;918;50.796;6.772;2022-12-18T01:10:09;17.63;;;12.20;;
1837;SDS011;918;50.796;6.772;2022-12-18T01:12:37;15.40;;;11.30;;
1837;SDS011;918;50.796;6.772;2022-12-18T01:15:02;14.93;;;11.20;;
1837;SDS011;918;50.796;6.772;2022-12-18T01:17:29;11.97;;;10.53;;
1837;SDS011;918;50.796;6.772;2022-12-18T01:19:54;11.83;;;9.83;;
1837;SDS011;918;50.796;6.772;2022-12-18T01:22:19;13.70;;;11.37;;
1837;SDS011;918;50.796;6.772;2022-12-18T01:24:44;14.63;;;10.20;;
1837;SDS011;918;50.796;6.772;2022-12-18T01:27:10;10.07;;;9.07;;
1837;SDS011;918;50.796;6.772;2022-12-18T01:29:35;10.87;;;9.80;;
1837;SDS011;918;50.796;6.772;2022-12-18T01:32:00;11.00;;;9.10;;
1837;SDS011;918;50.796;6.772;2022-12-18T01:34:25;11.27;;;10.00;;
1837;SDS011;918;50.796;6.772;2022-12-18T01:36:50;12.97;;;9.20;;
1837;SDS011;918;50.796;6.772;2022-12-18T01:39:17;13.07;;;8.83;;
1837;SDS011;918;50.796;6.772;2022-12-18T01:41:42;11.20;;;9.30;;
1837;SDS011;918;50.796;6.772;2022-12-18T01:49:58;13.27;;;9.20;;
1837;SDS011;918;50.796;6.772;2022-12-18T01:52:29;12.90;;;9.70;;
1837;SDS011;918;50.796;6.772;2022-12-18T01:54:56;10.70;;;9.07;;
1837;SDS011;918;50.796;6.772;2022-12-18T01:57:23;10.13;;;9.03;;
1837;SDS011;918;50.796;6.772;2022-12-18T01:59:49;12.83;;;9.37;;
1837;SDS011;918;50.796;6.772;2022-12-18T02:02:16;13.80;;;10.60;;
1837;SDS011;918;50.796;6.772;2022-12-18T02:04:42;11.50;;;10.30;;
1837;SDS011;918;50.796;6.772;2022-12-18T02:09:46;18.43;;;12.50;;
1837;SDS011;918;50.796;6.772;2022-12-18T02:12:16;17.23;;;11.13;;
1837;SDS011;918;50.796;6.772;2022-12-18T02:15:07;16.40;;;10.80;;
1837;SDS011;918;50.796;6.772;2022-12-18T02:17:41;12.93;;;11.60;;
1837;SDS011;918;50.796;6.772;2022-12-18T02:20:28;13.20;;;10.60;;
1837;SDS011;918;50.796;6.772;2022-12-18T02:28:33;15.93;;;10.80;;
1837;SDS011;918;50.796;6.772;2022-12-18T02:31:02;12.43;;;9.77;;
1837;SDS011;918;50.796;6.772;2022-12-18T02:33:29;13.77;;;10.30;;
1837;SDS011;918;50.796;6.772;2022-12-18T02:35:55;12.27;;;9.77;;
1837;SDS011;918;50.796;6.772;2022-12-18T02:38:22;14.90;;;10.67;;
1837;SDS011;918;50.796;6.772;2022-12-18T02:40:48;15.20;;;12.33;;
1837;SDS011;918;50.796;6.772;2022-12-18T02:43:15;12.57;;;10.57;;
1837;SDS011;918;50.796;6.772;2022-12-18T02:45:51;13.33;;;11.70;;
1837;SDS011;918;50.796;6.772;2022-12-18T02:48:18;15.67;;;10.50;;
1837;SDS011;918;50.796;6.772;2022-12-18T02:51:00;14.77;;;11.17;;
1837;SDS011;918;50.796;6.772;2022-12-18T02:53:33;13.03;;;10.77;;
1837;SDS011;918;50.796;6.772;2022-12-18T02:56:09;16.40;;;12.07;;
1837;SDS011;918;50.796;6.772;2022-12-18T03:04:04;14.77;;;10.63;;
1837;SDS011;918;50.796;6.772;2022-12-18T03:06:36;15.30;;;12.73;;
1837;SDS011;918;50.796;6.772;2022-12-18T03:09:09;17.40;;;11.37;;
1837;SDS011;918;50.796;6.772;2022-12-18T03:11:38;14.80;;;11.67;;
1837;SDS011;918;50.796;6.772;2022-12-18T03:14:24;13.30;;;10.83;;
1837;SDS011;918;50.796;6.772;2022-12-18T03:16:51;15.90;;;11.30;;
1837;SDS011;918;50.796;6.772;2022-12-18T03:19:18;12.33;;;9.40;;
1837;SDS011;918;50.796;6.772;2022-12-18T03:21:47;14.20;;;10.87;;
1837;SDS011;918;50.796;6.772;2022-12-18T03:24:15;14.43;;;11.27;;
1837;SDS011;918;50.796;6.772;2022-12-18T03:26:43;14.67;;;12.60;;
1837;SDS011;918;50.796;6.772;2022-12-18T03:29:17;17.77;;;11.13;;
1837;SDS011;918;50.796;6.772;2022-12-18T03:31:46;16.27;;;11.27;;
1837;SDS011;918;50.796;6.772;2022-12-18T03:34:15;16.67;;;12.20;;
1837;SDS011;918;50.796;6.772;2022-12-18T03:36:45;14.77;;;11.90;;
1837;SDS011;918;50.796;6.772;2022-12-18T03:39:10;15.73;;;11.70;;
1837;SDS011;918;50.796;6.772;2022-12-18T03:41:52;16.67;;;11.40;;
1837;SDS011;918;50.796;6.772;2022-12-18T03:44:36;16.57;;;11.70;;
1837;SDS011;918;50.796;6.772;2022-12-18T03:47:09;17.53;;;12.07;;
1837;SDS011;918;50.796;6.772;2022-12-18T03:55:01;16.00;;;11.23;;
1837;SDS011;918;50.796;6.772;2022-12-18T03:57:28;14.23;;;11.03;;
1837;SDS011;918;50.796;6.772;2022-12-18T03:59:56;17.10;;;12.20;;
1837;SDS011;918;50.796;6.772;2022-12-18T04:02:24;16.10;;;12.20;;
1837;SDS011;918;50.796;6.772;2022-12-18T04:04:51;14.87;;;12.00;;
1837;SDS011;918;50.796;6.772;2022-12-18T04:07:17;16.57;;;11.87;;
1837;SDS011;918;50.796;6.772;2022-12-18T04:09:43;21.73;;;13.20;;
1837;SDS011;918;50.796;6.772;2022-12-18T04:12:10;16.87;;;12.93;;
1837;SDS011;918;50.796;6.772;2022-12-18T04:14:36;16.60;;;12.97;;
1837;SDS011;918;50.796;6.772;2022-12-18T04:17:01;20.20;;;11.93;;
1837;SDS011;918;50.796;6.772;2022-12-18T04:19:27;18.97;;;13.00;;
1837;SDS011;918;50.796;6.772;2022-12-18T04:21:53;16.07;;;12.73;;
1837;SDS011;918;50.796;6.772;2022-12-18T04:24:18;16.83;;;12.30;;
1837;SDS011;918;50.796;6.772;2022-12-18T04:26:43;15.80;;;13.13;;
1837;SDS011;918;50.796;6.772;2022-12-18T04:29:10;17.90;;;12.43;;
1837;SDS011;918;50.796;6.772;2022-12-18T04:31:35;14.53;;;12.67;;
1837;SDS011;918;50.796;6.772;2022-12-18T04:34:00;19.97;;;14.20;;
1837;SDS011;918;50.796;6.772;2022-12-18T04:36:26;14.43;;;11.80;;
1837;SDS011;918;50.796;6.772;2022-12-18T04:38:51;15.67;;;13.03;;
1837;SDS011;918;50.796;6.772;2022-12-18T04:41:16;17.70;;;13.30;;
1837;SDS011;918;50.796;6.772;2022-12-18T04:43:41;17.90;;;12.03;;
1837;SDS011;918;50.796;6.772;2022-12-18T04:46:07;12.30;;;11.00;;
1837;SDS011;918;50.796;6.772;2022-12-18T04:48:33;17.30;;;11.53;;
1837;SDS011;918;50.796;6.772;2022-12-18T04:50:59;16.87;;;12.20;;
1837;SDS011;918;50.796;6.772;2022-12-18T04:53:24;13.23;;;11.50;;
1837;SDS011;918;50.796;6.772;2022-12-18T04:55:49;17.03;;;13.60;;
1837;SDS011;918;50.796;6.772;2022-12-18T04:58:14;17.73;;;13.27;;
1837;SDS011;918;50.796;6.772;2022-12-18T05:00:40;19.27;;;12.40;;
1837;SDS011;918;50.796;6.772;2022-12-18T05:03:05;14.30;;;11.73;;
1837;SDS011;918;50.796;6.772;2022-12-18T05:05:30;14.47;;;10.70;;
1837;SDS011;918;50.796;6.772;2022-12-18T05:07:56;12.47;;;10.27;;
1837;SDS011;918;50.796;6.772;2022-12-18T05:10:21;15.77;;;12.10;;
1837;SDS011;918;50.796;6.772;2022-12-18T05:12:46;13.83;;;11.17;;
1837;SDS011;918;50.796;6.772;2022-12-18T05:15:27;17.67;;;11.30;;
1837;SDS011;918;50.796;6.772;2022-12-18T05:17:56;17.40;;;13.03;;
1837;SDS011;918;50.796;6.772;2022-12-18T05:20:22;14.77;;;11.17;;
1837;SDS011;918;50.796;6.772;2022-12-18T05:22:48;19.00;;;12.67;;
1837;SDS011;918;50.796;6.772;2022-12-18T05:25:13;18.20;;;12.83;;
1837;SDS011;918;50.796;6.772;2022-12-18T05:27:38;18.60;;;12.10;;
1837;SDS011;918;50.796;6.772;2022-12-18T05:30:04;18.90;;;13.00;;
1837;SDS011;918;50.796;6.772;2022-12-18T05:32:29;15.57;;;12.40;;
1837;SDS011;918;50.796;6.772;2022-12-18T05:34:54;15.00;;;12.03;;
1837;SDS011;918;50.796;6.772;2022-12-18T05:37:22;17.53;;;12.60;;
1837;SDS011;918;50.796;6.772;2022-12-18T05:39:47;16.43;;;12.87;;
1837;SDS011;918;50.796;6.772;2022-12-18T05:42:12;17.50;;;13.10;;
1837;SDS011;918;50.796;6.772;2022-12-18T05:44:37;16.27;;;12.53;;
1837;SDS011;918;50.796;6.772;2022-12-18T05:47:03;17.67;;;12.37;;
1837;SDS011;918;50.796;6.772;2022-12-18T05:49:29;16.27;;;12.30;;
1837;SDS011;918;50.796;6.772;2022-12-18T05:51:54;19.20;;;12.90;;
1837;SDS011;918;50.796;6.772;2022-12-18T05:54:19;19.60;;;13.70;;
1837;SDS011;918;50.796;6.772;2022-12-18T05:56:44;19.03;;;13.33;;
1837;SDS011;918;50.796;6.772;2022-12-18T05:59:09;16.83;;;12.73;;
1837;SDS011;918;50.796;6.772;2022-12-18T06:01:35;15.47;;;12.60;;
1837;SDS011;918;50.796;6.772;2022-12-18T06:04:00;15.67;;;12.37;;
1837;SDS011;918;50.796;6.772;2022-12-18T06:06:26;17.60;;;14.13;;
1837;SDS011;918;50.796;6.772;2022-12-18T06:08:52;18.20;;;13.13;;
1837;SDS011;918;50.796;6.772;2022-12-18T06:11:19;21.97;;;14.33;;
1837;SDS011;918;50.796;6.772;2022-12-18T06:13:49;16.30;;;12.20;;
1837;SDS011;918;50.796;6.772;2022-12-18T06:16:15;19.67;;;15.23;;
1837;SDS011;918;50.796;6.772;2022-12-18T06:18:40;19.80;;;14.40;;
1837;SDS011;918;50.796;6.772;2022-12-18T06:21:05;18.00;;;12.50;;
1837;SDS011;918;50.796;6.772;2022-12-18T06:23:31;20.53;;;13.77;;
1837;SDS011;918;50.796;6.772;2022-12-18T06:25:56;18.97;;;13.50;;
1837;SDS011;918;50.796;6.772;2022-12-18T06:28:22;18.33;;;13.20;;
1837;SDS011;918;50.796;6.772;2022-12-18T06:30:47;21.50;;;15.10;;
1837;SDS011;918;50.796;6.772;2022-12-18T06:33:13;19.90;;;14.10;;
1837;SDS011;918;50.796;6.772;2022-12-18T06:35:39;17.57;;;13.87;;
1837;SDS011;918;50.796;6.772;2022-12-18T06:38:04;20.00;;;13.83;;
1837;SDS011;918;50.796;6.772;2022-12-18T06:40:29;20.57;;;13.60;;
1837;SDS011;918;50.796;6.772;2022-12-18T06:42:55;22.20;;;14.37;;
1837;SDS011;918;50.796;6.772;2022-12-18T06:45:20;19.10;;;14.00;;
1837;SDS011;918;50.796;6.772;2022-12-18T06:47:45;23.67;;;15.70;;
1837;SDS011;918;50.796;6.772;2022-12-18T06:50:11;19.33;;;14.67;;
1837;SDS011;918;50.796;6.772;2022-12-18T06:52:36;26.10;;;15.83;;
1837;SDS011;918;50.796;6.772;2022-12-18T06:55:02;17.80;;;13.97;;
1837;SDS011;918;50.796;6.772;2022-12-18T06:57:27;20.80;;;14.50;;
1837;SDS011;918;50.796;6.772;2022-12-18T06:59:53;19.43;;;14.53;;
1837;SDS011;918;50.796;6.772;2022-12-18T07:02:18;19.60;;;15.13;;
1837;SDS011;918;50.796;6.772;2022-12-18T07:04:43;18.40;;;13.83;;
1837;SDS011;918;50.796;6.772;2022-12-18T07:07:08;19.53;;;14.47;;
1837;SDS011;918;50.796;6.772;2022-12-18T07:09:34;19.83;;;14.33;;
1837;SDS011;918;50.796;6.772;2022-12-18T07:11:59;17.30;;;14.60;;
1837;SDS011;918;50.796;6.772;2022-12-18T07:14:24;20.47;;;14.73;;
1837;SDS011;918;50.796;6.772;2022-12-18T07:16:49;22.10;;;15.17;;
1837;SDS011;918;50.796;6.772;2022-12-18T07:19:15;21.60;;;14.53;;
1837;SDS011;918;50.796;6.772;2022-12-18T07:21:40;20.30;;;15.97;;
1837;SDS011;918;50.796;6.772;2022-12-18T07:24:05;18.50;;;14.90;;
1837;SDS011;918;50.796;6.772;2022-12-18T07:26:31;28.80;;;15.67;;
1837;SDS011;918;50.796;6.772;2022-12-18T07:28:57;18.87;;;14.33;;
1837;SDS011;918;50.796;6.772;2022-12-18T07:31:22;19.97;;;16.97;;
1837;SDS011;918;50.796;6.772;2022-12-18T07:33:48;18.50;;;14.10;;
1837;SDS011;918;50.796;6.772;2022-12-18T07:36:14;20.33;;;15.77;;
1837;SDS011;918;50.796;6.772;2022-12-18T07:38:40;18.13;;;14.20;;
1837;SDS011;918;50.796;6.772;2022-12-18T07:41:07;18.67;;;14.67;;
1837;SDS011;918;50.796;6.772;2022-12-18T07:43:33;22.33;;;15.00;;
1837;SDS011;918;50.796;6.772;2022-12-18T07:45:59;21.43;;;14.60;;
1837;SDS011;918;50.796;6.772;2022-12-18T07:48:24;22.70;;;16.00;;
1837;SDS011;918;50.796;6.772;2022-12-18T07:50:50;20.73;;;15.37;;
1837;SDS011;918;50.796;6.772;2022-12-18T07:53:15;20.37;;;15.07;;
1837;SDS011;918;50.796;6.772;2022-12-18T07:55:41;19.50;;;15.50;;
1837;SDS011;918;50.796;6.772;2022-12-18T07:58:07;22.57;;;16.00;;
1837;SDS011;918;50.796;6.772;2022-12-18T08:00:32;20.50;;;15.07;;
1837;SDS011;918;50.796;6.772;2022-12-18T08:02:57;22.10;;;16.30;;
1837;SDS011;918;50.796;6.772;2022-12-18T08:05:23;20.70;;;16.63;;
1837;SDS011;918;50.796;6.772;2022-12-18T08:07:48;19.40;;;15.70;;
1837;SDS011;918;50.796;6.772;2022-12-18T08:10:13;18.63;;;14.60;;
1837;SDS011;918;50.796;6.772;2022-12-18T08:12:39;19.23;;;14.37;;
1837;SDS011;918;50.796;6.772;2022-12-18T08:15:04;20.13;;;15.10;;
1837;SDS011;918;50.796;6.772;2022-12-18T08:17:30;21.10;;;17.10;;
1837;SDS011;918;50.796;6.772;2022-12-18T08:19:55;22.80;;;15.80;;
1837;SDS011;918;50.796;6.772;2022-12-18T08:22:21;20.73;;;17.30;;
1837;SDS011;918;50.796;6.772;2022-12-18T08:24:46;21.70;;;15.40;;
1837;SDS011;918;50.796;6.772;2022-12-18T08:27:11;22.37;;;16.30;;
1837;SDS011;918;50.796;6.772;2022-12-18T08:29:37;22.73;;;14.80;;
1837;SDS011;918;50.796;6.772;2022-12-18T08:32:03;20.83;;;15.20;;
1837;SDS011;918;50.796;6.772;2022-12-18T08:34:28;19.67;;;15.53;;
1837;SDS011;918;50.796;6.772;2022-12-18T08:36:53;17.67;;;14.13;;
1837;SDS011;918;50.796;6.772;2022-12-18T08:39:18;20.00;;;16.40;;
1837;SDS011;918;50.796;6.772;2022-12-18T08:41:44;20.97;;;14.33;;
1837;SDS011;918;50.796;6.772;2022-12-18T08:44:29;19.83;;;14.10;;
1837;SDS011;918;50.796;6.772;2022-12-18T08:47:04;21.73;;;15.47;;
1837;SDS011;918;50.796;6.772;2022-12-18T08:49:30;17.50;;;14.77;;
1837;SDS011;918;50.796;6.772;2022-12-18T08:51:55;19.00;;;14.87;;
1837;SDS011;918;50.796;6.772;2022-12-18T08:54:22;18.73;;;14.50;;
1837;SDS011;918;50.796;6.772;2022-12-18T08:56:47;20.53;;;14.47;;
1837;SDS011;918;50.796;6.772;2022-12-18T08:59:13;18.10;;;13.57;;
1837;SDS011;918;50.796;6.772;2022-12-18T09:01:38;21.37;;;15.57;;
1837;SDS011;918;50.796;6.772;2022-12-18T09:04:03;20.77;;;15.10;;
1837;SDS011;918;50.796;6.772;2022-12-18T09:06:28;20.03;;;14.30;;
1837;SDS011;918;50.796;6.772;2022-12-18T09:08:54;19.83;;;16.03;;
1837;SDS011;918;50.796;6.772;2022-12-18T09:11:23;17.70;;;14.77;;
1837;SDS011;918;50.796;6.772;2022-12-18T09:13:50;19.00;;;15.07;;
1837;SDS011;918;50.796;6.772;2022-12-18T09:16:16;19.77;;;15.60;;
1837;SDS011;918;50.796;6.772;2022-12-18T09:18:41;24.10;;;16.50;;
1837;SDS011;918;50.796;6.772;2022-12-18T09:21:07;19.33;;;14.30;;
1837;SDS011;918;50.796;6.772;2022-12-18T09:23:36;15.37;;;13.73;;
1837;SDS011;918;50.796;6.772;2022-12-18T09:26:02;18.03;;;15.10;;
1837;SDS011;918;50.796;6.772;2022-12-18T09:28:27;18.60;;;14.10;;
1837;SDS011;918;50.796;6.772;2022-12-18T09:30:52;21.13;;;15.67;;
1837;SDS011;918;50.796;6.772;2022-12-18T09:33:18;20.00;;;15.10;;
1837;SDS011;918;50.796;6.772;2022-12-18T09:35:43;17.03;;;14.53;;
1837;SDS011;918;50.796;6.772;2022-12-18T09:38:11;19.60;;;14.97;;
1837;SDS011;918;50.796;6.772;2022-12-18T09:40:41;19.37;;;14.40;;
1837;SDS011;918;50.796;6.772;2022-12-18T09:43:16;18.53;;;14.00;;
1837;SDS011;918;50.796;6.772;2022-12-18T09:45:44;19.90;;;13.80;;
1837;SDS011;918;50.796;6.772;2022-12-18T09:53:49;24.00;;;15.03;;
1837;SDS011;918;50.796;6.772;2022-12-18T09:56:17;18.53;;;13.83;;
1837;SDS011;918;50.796;6.772;2022-12-18T09:58:53;18.30;;;14.00;;
1837;SDS011;918;50.796;6.772;2022-12-18T10:01:21;15.87;;;12.30;;
1837;SDS011;918;50.796;6.772;2022-12-18T10:03:47;17.93;;;13.80;;
1837;SDS011;918;50.796;6.772;2022-12-18T10:08:46;13.60;;;11.83;;
1837;SDS011;918;50.796;6.772;2022-12-18T10:16:21;17.50;;;14.27;;
1837;SDS011;918;50.796;6.772;2022-12-18T10:24:01;18.07;;;15.10;;
1837;SDS011;918;50.796;6.772;2022-12-18T10:26:34;18.70;;;14.10;;
1837;SDS011;918;50.796;6.772;2022-12-18T10:28:59;16.23;;;13.10;;
1837;SDS011;918;50.796;6.772;2022-12-18T10:31:25;18.93;;;14.40;;
1837;SDS011;918;50.796;6.772;2022-12-18T10:33:50;16.00;;;13.10;;
1837;SDS011;918;50.796;6.772;2022-12-18T10:36:16;15.60;;;13.40;;
1837;SDS011;918;50.796;6.772;2022-12-18T10:38:41;17.90;;;13.90;;
1837;SDS011;918;50.796;6.772;2022-12-18T10:44:10;16.67;;;14.43;;
1837;SDS011;918;50.796;6.772;2022-12-18T10:46:46;18.07;;;13.53;;
1837;SDS011;918;50.796;6.772;2022-12-18T10:49:21;18.60;;;14.20;;
1837;SDS011;918;50.796;6.772;2022-12-18T10:51:48;16.30;;;13.57;;
1837;SDS011;918;50.796;6.772;2022-12-18T10:54:15;17.73;;;13.70;;
1837;SDS011;918;50.796;6.772;2022-12-18T10:56:43;17.53;;;14.60;;
1837;SDS011;918;50.796;6.772;2022-12-18T10:59:10;18.47;;;14.80;;
1837;SDS011;918;50.796;6.772;2022-12-18T11:01:47;17.70;;;13.97;;
1837;SDS011;918;50.796;6.772;2022-12-18T11:06:56;17.40;;;14.70;;
1837;SDS011;918;50.796;6.772;2022-12-18T11:09:26;18.67;;;14.73;;
1837;SDS011;918;50.796;6.772;2022-12-18T11:11:57;15.37;;;13.77;;
1837;SDS011;918;50.796;6.772;2022-12-18T11:14:28;19.17;;;14.57;;
1837;SDS011;918;50.796;6.772;2022-12-18T11:16:56;14.23;;;12.73;;
1837;SDS011;918;50.796;6.772;2022-12-18T11:19:36;17.30;;;12.90;;
1837;SDS011;918;50.796;6.772;2022-12-18T11:22:24;16.83;;;13.23;;
1837;SDS011;918;50.796;6.772;2022-12-18T11:25:03;17.70;;;13.60;;
1837;SDS011;918;50.796;6.772;2022-12-18T11:27:30;18.60;;;14.07;;
1837;SDS011;918;50.796;6.772;2022-12-18T11:33:28;19.37;;;14.17;;
1837;SDS011;918;50.796;6.772;2022-12-18T11:35:37;15.00;;;13.00;;
1837;SDS011;918;50.796;6.772;2022-12-18T11:38:21;16.13;;;13.30;;
1837;SDS011;918;50.796;6.772;2022-12-18T11:40:51;16.23;;;13.73;;
1837;SDS011;918;50.796;6.772;2022-12-18T11:43:22;17.43;;;15.23;;
1837;SDS011;918;50.796;6.772;2022-12-18T11:46:02;19.10;;;13.20;;
1837;SDS011;918;50.796;6.772;2022-12-18T11:48:37;21.63;;;15.33;;
1837;SDS011;918;50.796;6.772;2022-12-18T11:51:10;18.93;;;14.87;;
1837;SDS011;918;50.796;6.772;2022-12-18T11:53:38;16.77;;;14.30;;
1837;SDS011;918;50.796;6.772;2022-12-18T11:59:08;16.00;;;14.40;;
1837;SDS011;918;50.796;6.772;2022-12-18T12:01:51;15.37;;;13.50;;
1837;SDS011;918;50.796;6.772;2022-12-18T12:07:05;20.87;;;15.67;;
1837;SDS011;918;50.796;6.772;2022-12-18T12:09:50;16.50;;;14.30;;
1837;SDS011;918;50.796;6.772;2022-12-18T12:15:23;18.63;;;14.50;;
1837;SDS011;918;50.796;6.772;2022-12-18T12:18:14;17.80;;;13.50;;
1837;SDS011;918;50.796;6.772;2022-12-18T12:21:28;20.70;;;15.10;;
1837;SDS011;918;50.796;6.772;2022-12-18T12:29:13;19.27;;;14.80;;
1837;SDS011;918;50.796;6.772;2022-12-18T12:34:32;17.20;;;14.17;;
1837;SDS011;918;50.796;6.772;2022-12-18T12:40:07;20.13;;;14.77;;
1837;SDS011;918;50.796;6.772;2022-12-18T12:42:57;17.67;;;15.77;;
1837;SDS011;918;50.796;6.772;2022-12-18T12:48:37;19.60;;;14.93;;
1837;SDS011;918;50.796;6.772;2022-12-18T12:51:19;19.77;;;15.20;;
1837;SDS011;918;50.796;6.772;2022-12-18T12:53:46;17.47;;;15.10;;
1837;SDS011;918;50.796;6.772;2022-12-18T12:56:13;20.47;;;16.33;;
1837;SDS011;918;50.796;6.772;2022-12-18T13:07:09;19.80;;;16.17;;
1837;SDS011;918;50.796;6.772;2022-12-18T13:10:11;19.10;;;15.10;;
1837;SDS011;918;50.796;6.772;2022-12-18T13:15:39;18.40;;;14.97;;
1837;SDS011;918;50.796;6.772;2022-12-18T13:23:23;20.10;;;16.30;;
1837;SDS011;918;50.796;6.772;2022-12-18T13:30:58;21.70;;;17.00;;
1837;SDS011;918;50.796;6.772;2022-12-18T13:35:53;24.50;;;16.73;;
1837;SDS011;918;50.796;6.772;2022-12-18T13:45:45;20.30;;;15.63;;
1837;SDS011;918;50.796;6.772;2022-12-18T13:48:32;20.90;;;16.97;;
1837;SDS011;918;50.796;6.772;2022-12-18T13:56:16;20.20;;;16.13;;
1837;SDS011;918;50.796;6.772;2022-12-18T13:58:45;17.27;;;15.40;;
1837;SDS011;918;50.796;6.772;2022-12-18T14:01:23;19.83;;;15.40;;
1837;SDS011;918;50.796;6.772;2022-12-18T14:03:49;22.10;;;16.70;;
1837;SDS011;918;50.796;6.772;2022-12-18T14:06:18;21.17;;;17.27;;
1837;SDS011;918;50.796;6.772;2022-12-18T14:08:43;22.93;;;18.23;;
1837;SDS011;918;50.796;6.772;2022-12-18T14:11:19;28.03;;;17.30;;
1837;SDS011;918;50.796;6.772;2022-12-18T14:13:46;19.53;;;17.10;;
1837;SDS011;918;50.796;6.772;2022-12-18T14:16:12;21.30;;;17.60;;
1837;SDS011;918;50.796;6.772;2022-12-18T14:18:46;24.57;;;18.37;;
1837;SDS011;918;50.796;6.772;2022-12-18T14:21:17;20.97;;;17.37;;
1837;SDS011;918;50.796;6.772;2022-12-18T14:24:02;23.30;;;17.03;;
1837;SDS011;918;50.796;6.772;2022-12-18T14:26:36;23.43;;;17.00;;
1837;SDS011;918;50.796;6.772;2022-12-18T14:29:17;20.23;;;17.43;;
1837;SDS011;918;50.796;6.772;2022-12-18T14:32:03;22.80;;;17.87;;
1837;SDS011;918;50.796;6.772;2022-12-18T14:34:32;26.77;;;16.30;;
1837;SDS011;918;50.796;6.772;2022-12-18T14:36:58;21.43;;;16.23;;
1837;SDS011;918;50.796;6.772;2022-12-18T14:39:23;25.40;;;18.63;;
1837;SDS011;918;50.796;6.772;2022-12-18T14:41:50;23.40;;;17.20;;
1837;SDS011;918;50.796;6.772;2022-12-18T14:44:15;23.70;;;17.80;;
1837;SDS011;918;50.796;6.772;2022-12-18T14:46:44;27.57;;;19.43;;
1837;SDS011;918;50.796;6.772;2022-12-18T14:51:55;25.10;;;18.87;;
1837;SDS011;918;50.796;6.772;2022-12-18T14:54:25;22.97;;;18.93;;
1837;SDS011;918;50.796;6.772;2022-12-18T14:56:58;29.20;;;18.37;;
1837;SDS011;918;50.796;6.772;2022-12-18T14:59:26;23.30;;;18.83;;
1837;SDS011;918;50.796;6.772;2022-12-18T15:02:03;27.60;;;18.63;;
1837;SDS011;918;50.796;6.772;2022-12-18T15:04:39;24.57;;;18.43;;
1837;SDS011;918;50.796;6.772;2022-12-18T15:07:11;26.40;;;19.60;;
1837;SDS011;918;50.796;6.772;2022-12-18T15:09:40;22.10;;;17.33;;
1837;SDS011;918;50.796;6.772;2022-12-18T15:14:57;26.50;;;19.80;;
1837;SDS011;918;50.796;6.772;2022-12-18T15:17:23;25.83;;;20.00;;
1837;SDS011;918;50.796;6.772;2022-12-18T15:19:49;27.20;;;20.60;;
1837;SDS011;918;50.796;6.772;2022-12-18T15:22:27;59.23;;;20.80;;
1837;SDS011;918;50.796;6.772;2022-12-18T15:24:54;38.60;;;19.40;;
1837;SDS011;918;50.796;6.772;2022-12-18T15:27:21;24.57;;;19.23;;
1837;SDS011;918;50.796;6.772;2022-12-18T15:32:34;25.80;;;18.83;;
1837;SDS011;918;50.796;6.772;2022-12-18T15:37:28;25.77;;;17.40;;
1837;SDS011;918;50.796;6.772;2022-12-18T15:39:54;26.33;;;20.57;;
1837;SDS011;918;50.796;6.772;2022-12-18T15:42:19;22.13;;;17.07;;
1837;SDS011;918;50.796;6.772;2022-12-18T15:45:03;27.10;;;19.60;;
1837;SDS011;918;50.796;6.772;2022-12-18T15:47:28;29.60;;;20.07;;
1837;SDS011;918;50.796;6.772;2022-12-18T15:49:54;27.30;;;19.80;;
1837;SDS011;918;50.796;6.772;2022-12-18T15:52:19;30.67;;;21.80;;
1837;SDS011;918;50.796;6.772;2022-12-18T15:54:50;25.73;;;21.20;;
1837;SDS011;918;50.796;6.772;2022-12-18T15:57:34;28.10;;;18.83;;
1837;SDS011;918;50.796;6.772;2022-12-18T15:59:59;28.10;;;21.23;;
1837;SDS011;918;50.796;6.772;2022-12-18T16:02:25;25.93;;;19.80;;
1837;SDS011;918;50.796;6.772;2022-12-18T16:04:50;27.67;;;19.97;;
1837;SDS011;918;50.796;6.772;2022-12-18T16:07:17;26.20;;;19.67;;
1837;SDS011;918;50.796;6.772;2022-12-18T16:09:42;26.20;;;21.13;;
1837;SDS011;918;50.796;6.772;2022-12-18T16:12:25;27.07;;;20.33;;
1837;SDS011;918;50.796;6.772;2022-12-18T16:14:51;24.17;;;19.80;;
1837;SDS011;918;50.796;6.772;2022-12-18T16:17:16;29.00;;;20.93;;
1837;SDS011;918;50.796;6.772;2022-12-18T16:19:42;29.57;;;20.40;;
1837;SDS011;918;50.796;6.772;2022-12-18T16:22:12;26.20;;;19.07;;
1837;SDS011;918;50.796;6.772;2022-12-18T16:24:43;25.93;;;19.30;;
1837;SDS011;918;50.796;6.772;2022-12-18T16:27:09;30.23;;;20.50;;
1837;SDS011;918;50.796;6.772;2022-12-18T16:29:34;29.63;;;19.93;;
1837;SDS011;918;50.796;6.772;2022-12-18T16:31:59;25.67;;;21.07;;
1837;SDS011;918;50.796;6.772;2022-12-18T16:34:26;30.50;;;20.03;;
1837;SDS011;918;50.796;6.772;2022-12-18T16:36:54;25.50;;;18.20;;
1837;SDS011;918;50.796;6.772;2022-12-18T16:39:23;23.80;;;18.53;;
1837;SDS011;918;50.796;6.772;2022-12-18T16:41:49;26.73;;;19.13;;
1837;SDS011;918;50.796;6.772;2022-12-18T16:44:14;28.07;;;18.50;;
1837;SDS011;918;50.796;6.772;2022-12-18T16:46:40;30.20;;;19.67;;
1837;SDS011;918;50.796;6.772;2022-12-18T16:49:10;24.87;;;18.50;;
1837;SDS011;918;50.796;6.772;2022-12-18T16:51:35;24.83;;;20.90;;
1837;SDS011;918;50.796;6.772;2022-12-18T16:54:01;26.40;;;19.27;;
1837;SDS011;918;50.796;6.772;2022-12-18T16:56:26;33.33;;;24.20;;
1837;SDS011;918;50.796;6.772;2022-12-18T16:58:52;33.03;;;21.10;;
1837;SDS011;918;50.796;6.772;2022-12-18T17:01:18;27.43;;;19.30;;
1837;SDS011;918;50.796;6.772;2022-12-18T17:03:43;28.43;;;20.00;;
1837;SDS011;918;50.796;6.772;2022-12-18T17:06:09;31.87;;;20.50;;
1837;SDS011;918;50.796;6.772;2022-12-18T17:08:34;29.80;;;22.37;;
1837;SDS011;918;50.796;6.772;2022-12-18T17:11:03;30.60;;;21.33;;
1837;SDS011;918;50.796;6.772;2022-12-18T17:13:29;25.93;;;20.30;;